sensor_id;sensor_type;location;lat;lon;timestamp;P1;durP1;ratioP1;P2;durP2;ratioP2
8895;SDS011;4484;48.928;10.066;2022-08-02T00:01:35;1.27;;;0.83;;
8895;SDS011;4484;48.928;10.066;2022-08-02T00:04:02;0.80;;;0.80;;
8895;SDS011;4484;48.928;10.066;2022-08-02T00:06:29;0.90;;;0.87;;
8895;SDS011;4484;48.928;10.066;2022-08-02T00:08:56;0.73;;;0.73;;
8895;SDS011;4484;48.928;10.066;2022-08-02T00:11:23;0.97;;;0.70;;
8895;SDS011;4484;48.928;10.066;2022-08-02T00:13:50;1.73;;;0.97;;
8895;SDS011;4484;48.928;10.066;2022-08-02T00:16:17;1.10;;;0.83;;
8895;SDS011;4484;48.928;10.066;2022-08-02T00:18:44;1.30;;;1.00;;
8895;SDS011;4484;48.928;10.066;2022-08-02T00:21:11;0.70;;;0.70;;
8895;SDS011;4484;48.928;10.066;2022-08-02T00:23:39;0.80;;;0.80;;
8895;SDS011;4484;48.928;10.066;2022-08-02T00:26:26;0.87;;;0.77;;
8895;SDS011;4484;48.928;10.066;2022-08-02T00:28:53;1.03;;;0.87;;
8895;SDS011;4484;48.928;10.066;2022-08-02T00:31:20;1.13;;;1.03;;
8895;SDS011;4484;48.928;10.066;2022-08-02T00:33:46;1.53;;;0.87;;
8895;SDS011;4484;48.928;10.066;2022-08-02T00:36:33;2.70;;;1.00;;
8895;SDS011;4484;48.928;10.066;2022-08-02T00:39:00;1.13;;;1.00;;
8895;SDS011;4484;48.928;10.066;2022-08-02T00:41:27;1.37;;;0.87;;
8895;SDS011;4484;48.928;10.066;2022-08-02T00:43:54;1.03;;;0.80;;
8895;SDS011;4484;48.928;10.066;2022-08-02T00:46:22;0.83;;;0.83;;
8895;SDS011;4484;48.928;10.066;2022-08-02T00:48:49;0.70;;;0.70;;
8895;SDS011;4484;48.928;10.066;2022-08-02T00:51:16;1.13;;;0.80;;
8895;SDS011;4484;48.928;10.066;2022-08-02T00:53:43;1.13;;;0.87;;
8895;SDS011;4484;48.928;10.066;2022-08-02T00:56:10;0.67;;;0.67;;
8895;SDS011;4484;48.928;10.066;2022-08-02T00:58:38;1.10;;;0.80;;
8895;SDS011;4484;48.928;10.066;2022-08-02T01:01:04;0.80;;;0.80;;
8895;SDS011;4484;48.928;10.066;2022-08-02T01:03:31;1.67;;;0.80;;
8895;SDS011;4484;48.928;10.066;2022-08-02T01:05:58;0.60;;;0.60;;
8895;SDS011;4484;48.928;10.066;2022-08-02T01:08:40;0.70;;;0.70;;
8895;SDS011;4484;48.928;10.066;2022-08-02T01:11:09;1.00;;;0.70;;
8895;SDS011;4484;48.928;10.066;2022-08-02T01:13:36;1.43;;;0.77;;
8895;SDS011;4484;48.928;10.066;2022-08-02T01:16:12;1.10;;;0.90;;
8895;SDS011;4484;48.928;10.066;2022-08-02T01:18:46;0.90;;;0.73;;
8895;SDS011;4484;48.928;10.066;2022-08-02T01:24:22;0.83;;;0.70;;
8895;SDS011;4484;48.928;10.066;2022-08-02T01:30:13;0.90;;;0.87;;
8895;SDS011;4484;48.928;10.066;2022-08-02T01:32:42;1.03;;;0.80;;
8895;SDS011;4484;48.928;10.066;2022-08-02T01:35:14;1.13;;;0.80;;
8895;SDS011;4484;48.928;10.066;2022-08-02T01:37:51;0.67;;;0.67;;
8895;SDS011;4484;48.928;10.066;2022-08-02T01:40:25;0.73;;;0.70;;
8895;SDS011;4484;48.928;10.066;2022-08-02T01:42:55;1.00;;;0.97;;
8895;SDS011;4484;48.928;10.066;2022-08-02T01:45:24;0.93;;;0.87;;
8895;SDS011;4484;48.928;10.066;2022-08-02T01:47:53;0.87;;;0.87;;
8895;SDS011;4484;48.928;10.066;2022-08-02T01:50:26;1.00;;;0.80;;
8895;SDS011;4484;48.928;10.066;2022-08-02T01:52:58;0.93;;;0.80;;
8895;SDS011;4484;48.928;10.066;2022-08-02T01:55:29;1.97;;;0.80;;
8895;SDS011;4484;48.928;10.066;2022-08-02T01:58:19;1.50;;;0.90;;
8895;SDS011;4484;48.928;10.066;2022-08-02T02:00:50;0.60;;;0.60;;
8895;SDS011;4484;48.928;10.066;2022-08-02T02:03:19;0.50;;;0.50;;
8895;SDS011;4484;48.928;10.066;2022-08-02T02:05:48;1.60;;;0.80;;
8895;SDS011;4484;48.928;10.066;2022-08-02T02:08:23;0.80;;;0.70;;
8895;SDS011;4484;48.928;10.066;2022-08-02T02:10:55;0.80;;;0.60;;
8895;SDS011;4484;48.928;10.066;2022-08-02T02:13:42;2.20;;;0.70;;
8895;SDS011;4484;48.928;10.066;2022-08-02T02:16:10;1.93;;;0.70;;
8895;SDS011;4484;48.928;10.066;2022-08-02T02:18:39;0.70;;;0.70;;
8895;SDS011;4484;48.928;10.066;2022-08-02T02:21:11;0.40;;;0.40;;
8895;SDS011;4484;48.928;10.066;2022-08-02T02:23:39;0.50;;;0.50;;
8895;SDS011;4484;48.928;10.066;2022-08-02T02:26:06;0.60;;;0.60;;
8895;SDS011;4484;48.928;10.066;2022-08-02T02:28:38;0.87;;;0.70;;
8895;SDS011;4484;48.928;10.066;2022-08-02T02:31:07;1.20;;;1.10;;
8895;SDS011;4484;48.928;10.066;2022-08-02T02:33:46;1.67;;;0.93;;
8895;SDS011;4484;48.928;10.066;2022-08-02T02:36:15;1.23;;;1.00;;
8895;SDS011;4484;48.928;10.066;2022-08-02T02:38:44;1.33;;;1.00;;
8895;SDS011;4484;48.928;10.066;2022-08-02T02:41:12;1.17;;;1.07;;
8895;SDS011;4484;48.928;10.066;2022-08-02T02:43:41;1.30;;;1.20;;
8895;SDS011;4484;48.928;10.066;2022-08-02T02:46:09;1.27;;;1.07;;
8895;SDS011;4484;48.928;10.066;2022-08-02T02:48:38;0.90;;;0.90;;
8895;SDS011;4484;48.928;10.066;2022-08-02T02:51:05;1.47;;;1.17;;
8895;SDS011;4484;48.928;10.066;2022-08-02T02:53:39;1.23;;;1.10;;
8895;SDS011;4484;48.928;10.066;2022-08-02T02:56:28;1.30;;;1.20;;
8895;SDS011;4484;48.928;10.066;2022-08-02T02:58:56;2.33;;;1.33;;
8895;SDS011;4484;48.928;10.066;2022-08-02T03:01:25;3.50;;;1.37;;
8895;SDS011;4484;48.928;10.066;2022-08-02T03:04:13;1.40;;;1.10;;
8895;SDS011;4484;48.928;10.066;2022-08-02T03:06:40;1.10;;;1.00;;
8895;SDS011;4484;48.928;10.066;2022-08-02T03:09:07;2.90;;;1.00;;
8895;SDS011;4484;48.928;10.066;2022-08-02T03:11:37;1.30;;;1.20;;
8895;SDS011;4484;48.928;10.066;2022-08-02T03:14:07;1.27;;;1.00;;
8895;SDS011;4484;48.928;10.066;2022-08-02T03:16:41;2.70;;;1.20;;
8895;SDS011;4484;48.928;10.066;2022-08-02T03:19:12;1.30;;;1.20;;
8895;SDS011;4484;48.928;10.066;2022-08-02T03:21:40;1.13;;;1.03;;
8895;SDS011;4484;48.928;10.066;2022-08-02T03:24:08;3.10;;;1.20;;
8895;SDS011;4484;48.928;10.066;2022-08-02T03:26:35;1.43;;;1.27;;
8895;SDS011;4484;48.928;10.066;2022-08-02T03:29:02;1.60;;;1.50;;
8895;SDS011;4484;48.928;10.066;2022-08-02T03:31:39;2.17;;;1.70;;
8895;SDS011;4484;48.928;10.066;2022-08-02T03:34:07;1.60;;;1.50;;
8895;SDS011;4484;48.928;10.066;2022-08-02T03:36:34;3.50;;;1.97;;
8895;SDS011;4484;48.928;10.066;2022-08-02T03:39:02;2.67;;;1.60;;
8895;SDS011;4484;48.928;10.066;2022-08-02T03:41:30;2.10;;;1.90;;
8895;SDS011;4484;48.928;10.066;2022-08-02T03:43:58;4.30;;;2.13;;
8895;SDS011;4484;48.928;10.066;2022-08-02T03:46:26;2.50;;;2.07;;
8895;SDS011;4484;48.928;10.066;2022-08-02T03:48:53;2.13;;;1.90;;
8895;SDS011;4484;48.928;10.066;2022-08-02T03:51:21;3.17;;;2.40;;
8895;SDS011;4484;48.928;10.066;2022-08-02T03:53:48;2.67;;;2.03;;
8895;SDS011;4484;48.928;10.066;2022-08-02T03:56:16;2.60;;;2.20;;
8895;SDS011;4484;48.928;10.066;2022-08-02T03:58:43;2.50;;;2.00;;
8895;SDS011;4484;48.928;10.066;2022-08-02T04:01:15;2.60;;;2.40;;
8895;SDS011;4484;48.928;10.066;2022-08-02T04:03:42;4.63;;;2.80;;
8895;SDS011;4484;48.928;10.066;2022-08-02T04:06:09;4.37;;;2.50;;
8895;SDS011;4484;48.928;10.066;2022-08-02T04:08:36;3.27;;;2.43;;
8895;SDS011;4484;48.928;10.066;2022-08-02T04:11:04;3.17;;;2.70;;
8895;SDS011;4484;48.928;10.066;2022-08-02T04:13:51;2.80;;;2.10;;
8895;SDS011;4484;48.928;10.066;2022-08-02T04:16:22;2.43;;;2.10;;
8895;SDS011;4484;48.928;10.066;2022-08-02T04:19:03;3.37;;;2.77;;
8895;SDS011;4484;48.928;10.066;2022-08-02T04:21:33;4.47;;;2.50;;
8895;SDS011;4484;48.928;10.066;2022-08-02T04:24:17;2.27;;;2.07;;
8895;SDS011;4484;48.928;10.066;2022-08-02T04:26:57;2.80;;;2.00;;
8895;SDS011;4484;48.928;10.066;2022-08-02T04:29:46;3.13;;;2.40;;
8895;SDS011;4484;48.928;10.066;2022-08-02T04:32:14;2.50;;;2.30;;
8895;SDS011;4484;48.928;10.066;2022-08-02T04:34:42;3.30;;;2.23;;
8895;SDS011;4484;48.928;10.066;2022-08-02T04:37:30;4.07;;;2.63;;
8895;SDS011;4484;48.928;10.066;2022-08-02T04:39:57;4.07;;;2.50;;
8895;SDS011;4484;48.928;10.066;2022-08-02T04:42:25;2.53;;;2.17;;
8895;SDS011;4484;48.928;10.066;2022-08-02T04:44:52;2.47;;;2.27;;
8895;SDS011;4484;48.928;10.066;2022-08-02T04:47:19;2.20;;;2.00;;
8895;SDS011;4484;48.928;10.066;2022-08-02T04:50:06;4.53;;;2.30;;
8895;SDS011;4484;48.928;10.066;2022-08-02T04:52:33;3.87;;;2.80;;
8895;SDS011;4484;48.928;10.066;2022-08-02T04:55:00;3.57;;;2.70;;
8895;SDS011;4484;48.928;10.066;2022-08-02T04:57:27;4.07;;;2.93;;
8895;SDS011;4484;48.928;10.066;2022-08-02T05:00:18;4.80;;;2.60;;
8895;SDS011;4484;48.928;10.066;2022-08-02T05:02:45;2.70;;;2.50;;
8895;SDS011;4484;48.928;10.066;2022-08-02T05:05:13;3.73;;;3.30;;
8895;SDS011;4484;48.928;10.066;2022-08-02T05:07:40;3.43;;;3.13;;
8895;SDS011;4484;48.928;10.066;2022-08-02T05:10:07;4.33;;;3.17;;
8895;SDS011;4484;48.928;10.066;2022-08-02T05:12:34;3.43;;;2.50;;
8895;SDS011;4484;48.928;10.066;2022-08-02T05:15:03;3.23;;;2.43;;
8895;SDS011;4484;48.928;10.066;2022-08-02T05:17:30;3.70;;;3.10;;
8895;SDS011;4484;48.928;10.066;2022-08-02T05:19:57;2.97;;;2.67;;
8895;SDS011;4484;48.928;10.066;2022-08-02T05:22:24;7.10;;;3.10;;
8895;SDS011;4484;48.928;10.066;2022-08-02T05:24:51;6.93;;;3.33;;
8895;SDS011;4484;48.928;10.066;2022-08-02T05:27:17;3.63;;;2.83;;
8895;SDS011;4484;48.928;10.066;2022-08-02T05:29:47;2.60;;;2.30;;
8895;SDS011;4484;48.928;10.066;2022-08-02T05:32:21;3.77;;;3.30;;
8895;SDS011;4484;48.928;10.066;2022-08-02T05:34:50;5.50;;;2.87;;
8895;SDS011;4484;48.928;10.066;2022-08-02T05:37:17;3.37;;;3.07;;
8895;SDS011;4484;48.928;10.066;2022-08-02T05:39:44;3.57;;;3.17;;
8895;SDS011;4484;48.928;10.066;2022-08-02T05:42:21;4.33;;;2.93;;
8895;SDS011;4484;48.928;10.066;2022-08-02T05:44:48;4.40;;;3.00;;
8895;SDS011;4484;48.928;10.066;2022-08-02T05:47:15;3.57;;;3.27;;
8895;SDS011;4484;48.928;10.066;2022-08-02T05:49:42;3.63;;;3.10;;
8895;SDS011;4484;48.928;10.066;2022-08-02T05:52:13;3.43;;;3.03;;
8895;SDS011;4484;48.928;10.066;2022-08-02T06:00:12;3.40;;;2.77;;
8895;SDS011;4484;48.928;10.066;2022-08-02T06:05:19;3.17;;;2.87;;
8895;SDS011;4484;48.928;10.066;2022-08-02T06:07:48;3.83;;;2.60;;
8895;SDS011;4484;48.928;10.066;2022-08-02T06:10:16;4.40;;;3.03;;
8895;SDS011;4484;48.928;10.066;2022-08-02T06:15:40;4.43;;;2.90;;
8895;SDS011;4484;48.928;10.066;2022-08-02T06:18:19;3.47;;;2.30;;
8895;SDS011;4484;48.928;10.066;2022-08-02T06:20:55;3.23;;;2.33;;
8895;SDS011;4484;48.928;10.066;2022-08-02T06:23:46;6.00;;;3.17;;
8895;SDS011;4484;48.928;10.066;2022-08-02T06:26:26;4.17;;;2.90;;
8895;SDS011;4484;48.928;10.066;2022-08-02T06:28:54;5.37;;;2.90;;
8895;SDS011;4484;48.928;10.066;2022-08-02T06:31:22;3.33;;;2.60;;
8895;SDS011;4484;48.928;10.066;2022-08-02T06:33:49;3.53;;;3.00;;
8895;SDS011;4484;48.928;10.066;2022-08-02T06:41:58;4.43;;;2.67;;
8895;SDS011;4484;48.928;10.066;2022-08-02T06:44:41;3.13;;;2.67;;
8895;SDS011;4484;48.928;10.066;2022-08-02T06:47:16;3.30;;;2.57;;
8895;SDS011;4484;48.928;10.066;2022-08-02T06:49:43;3.40;;;2.83;;
8895;SDS011;4484;48.928;10.066;2022-08-02T06:52:24;2.77;;;2.17;;
8895;SDS011;4484;48.928;10.066;2022-08-02T06:54:55;7.50;;;3.10;;
8895;SDS011;4484;48.928;10.066;2022-08-02T06:57:26;3.50;;;2.53;;
8895;SDS011;4484;48.928;10.066;2022-08-02T06:59:54;2.73;;;2.13;;
8895;SDS011;4484;48.928;10.066;2022-08-02T07:02:21;2.63;;;2.43;;
8895;SDS011;4484;48.928;10.066;2022-08-02T07:04:48;2.70;;;2.50;;
8895;SDS011;4484;48.928;10.066;2022-08-02T07:07:16;2.23;;;2.00;;
8895;SDS011;4484;48.928;10.066;2022-08-02T07:09:43;3.63;;;2.10;;
8895;SDS011;4484;48.928;10.066;2022-08-02T07:12:26;5.47;;;2.60;;
8895;SDS011;4484;48.928;10.066;2022-08-02T07:14:54;6.43;;;3.10;;
8895;SDS011;4484;48.928;10.066;2022-08-02T07:19:52;2.47;;;2.28;;
8895;SDS011;4484;48.928;10.066;2022-08-02T07:22:19;2.15;;;1.95;;
8895;SDS011;4484;48.928;10.066;2022-08-02T07:24:49;3.28;;;2.85;;
8895;SDS011;4484;48.928;10.066;2022-08-02T07:27:16;3.92;;;3.17;;
8895;SDS011;4484;48.928;10.066;2022-08-02T07:29:43;3.20;;;2.40;;
8895;SDS011;4484;48.928;10.066;2022-08-02T07:32:16;3.55;;;2.30;;
8895;SDS011;4484;48.928;10.066;2022-08-02T07:34:44;4.35;;;3.03;;
8895;SDS011;4484;48.928;10.066;2022-08-02T07:37:19;3.08;;;2.50;;
8895;SDS011;4484;48.928;10.066;2022-08-02T07:40:07;3.50;;;2.83;;
8895;SDS011;4484;48.928;10.066;2022-08-02T07:42:43;3.78;;;2.63;;
8895;SDS011;4484;48.928;10.066;2022-08-02T07:45:10;4.40;;;3.03;;
8895;SDS011;4484;48.928;10.066;2022-08-02T07:47:39;3.35;;;3.05;;
8895;SDS011;4484;48.928;10.066;2022-08-02T07:50:07;3.08;;;2.78;;
8895;SDS011;4484;48.928;10.066;2022-08-02T07:52:35;4.20;;;2.65;;
8895;SDS011;4484;48.928;10.066;2022-08-02T07:55:06;3.42;;;2.65;;
8895;SDS011;4484;48.928;10.066;2022-08-02T07:57:34;3.95;;;2.80;;
8895;SDS011;4484;48.928;10.066;2022-08-02T08:00:05;3.13;;;2.83;;
8895;SDS011;4484;48.928;10.066;2022-08-02T08:02:39;3.80;;;2.65;;
8895;SDS011;4484;48.928;10.066;2022-08-02T08:05:06;3.55;;;2.83;;
8895;SDS011;4484;48.928;10.066;2022-08-02T08:07:33;5.57;;;3.10;;
8895;SDS011;4484;48.928;10.066;2022-08-02T08:10:03;4.30;;;2.70;;
8895;SDS011;4484;48.928;10.066;2022-08-02T08:12:31;4.28;;;2.83;;
8895;SDS011;4484;48.928;10.066;2022-08-02T08:14:58;4.13;;;2.70;;
8895;SDS011;4484;48.928;10.066;2022-08-02T08:17:25;4.45;;;2.90;;
8895;SDS011;4484;48.928;10.066;2022-08-02T08:19:51;4.68;;;2.67;;
8895;SDS011;4484;48.928;10.066;2022-08-02T08:22:19;2.63;;;2.40;;
8895;SDS011;4484;48.928;10.066;2022-08-02T08:24:46;2.63;;;2.03;;
8895;SDS011;4484;48.928;10.066;2022-08-02T08:27:14;2.22;;;2.10;;
8895;SDS011;4484;48.928;10.066;2022-08-02T08:29:42;2.70;;;2.38;;
8895;SDS011;4484;48.928;10.066;2022-08-02T08:32:09;2.25;;;2.05;;
8895;SDS011;4484;48.928;10.066;2022-08-02T08:34:46;2.13;;;1.92;;
8895;SDS011;4484;48.928;10.066;2022-08-02T08:37:15;2.40;;;1.95;;
8895;SDS011;4484;48.928;10.066;2022-08-02T08:39:47;2.90;;;2.13;;
8895;SDS011;4484;48.928;10.066;2022-08-02T08:42:24;4.65;;;2.60;;
8895;SDS011;4484;48.928;10.066;2022-08-02T08:44:53;2.92;;;2.30;;
8895;SDS011;4484;48.928;10.066;2022-08-02T08:47:22;2.55;;;2.35;;
8895;SDS011;4484;48.928;10.066;2022-08-02T08:49:50;3.30;;;2.95;;
8895;SDS011;4484;48.928;10.066;2022-08-02T08:52:19;2.45;;;2.08;;
8895;SDS011;4484;48.928;10.066;2022-08-02T08:54:50;3.95;;;2.30;;
8895;SDS011;4484;48.928;10.066;2022-08-02T08:57:18;2.70;;;2.38;;
8895;SDS011;4484;48.928;10.066;2022-08-02T08:59:46;2.45;;;2.17;;
8895;SDS011;4484;48.928;10.066;2022-08-02T09:02:13;2.95;;;2.00;;
8895;SDS011;4484;48.928;10.066;2022-08-02T09:04:47;2.50;;;2.10;;
8895;SDS011;4484;48.928;10.066;2022-08-02T09:07:21;2.25;;;2.10;;
8895;SDS011;4484;48.928;10.066;2022-08-02T09:09:50;2.65;;;2.05;;
8895;SDS011;4484;48.928;10.066;2022-08-02T09:12:17;2.30;;;2.10;;
8895;SDS011;4484;48.928;10.066;2022-08-02T09:14:47;4.53;;;2.00;;
8895;SDS011;4484;48.928;10.066;2022-08-02T09:17:16;3.83;;;2.08;;
8895;SDS011;4484;48.928;10.066;2022-08-02T09:19:43;2.13;;;1.95;;
8895;SDS011;4484;48.928;10.066;2022-08-02T09:22:11;2.33;;;2.00;;
8895;SDS011;4484;48.928;10.066;2022-08-02T09:27:19;3.40;;;2.45;;
8895;SDS011;4484;48.928;10.066;2022-08-02T09:29:48;1.90;;;1.80;;
8895;SDS011;4484;48.928;10.066;2022-08-02T09:32:45;2.28;;;2.08;;
8895;SDS011;4484;48.928;10.066;2022-08-02T09:35:13;4.75;;;1.98;;
8895;SDS011;4484;48.928;10.066;2022-08-02T09:38:23;2.10;;;1.92;;
8895;SDS011;4484;48.928;10.066;2022-08-02T09:40:51;1.95;;;1.80;;
8895;SDS011;4484;48.928;10.066;2022-08-02T09:43:18;2.00;;;1.90;;
8895;SDS011;4484;48.928;10.066;2022-08-02T09:45:48;2.17;;;1.98;;
8895;SDS011;4484;48.928;10.066;2022-08-02T09:48:15;1.83;;;1.70;;
8895;SDS011;4484;48.928;10.066;2022-08-02T09:50:41;2.47;;;2.00;;
8895;SDS011;4484;48.928;10.066;2022-08-02T09:53:11;2.67;;;2.10;;
8895;SDS011;4484;48.928;10.066;2022-08-02T09:55:39;1.70;;;1.60;;
8895;SDS011;4484;48.928;10.066;2022-08-02T09:58:16;1.85;;;1.52;;
8895;SDS011;4484;48.928;10.066;2022-08-02T10:00:56;3.80;;;2.08;;
8895;SDS011;4484;48.928;10.066;2022-08-02T10:03:26;2.22;;;1.70;;
8895;SDS011;4484;48.928;10.066;2022-08-02T10:06:01;1.80;;;1.70;;
8895;SDS011;4484;48.928;10.066;2022-08-02T10:08:29;2.63;;;1.50;;
8895;SDS011;4484;48.928;10.066;2022-08-02T10:10:59;1.60;;;1.50;;
8895;SDS011;4484;48.928;10.066;2022-08-02T10:13:27;1.40;;;1.30;;
8895;SDS011;4484;48.928;10.066;2022-08-02T10:15:56;1.92;;;1.55;;
8895;SDS011;4484;48.928;10.066;2022-08-02T10:18:23;2.03;;;1.83;;
8895;SDS011;4484;48.928;10.066;2022-08-02T10:21:05;1.38;;;1.33;;
8895;SDS011;4484;48.928;10.066;2022-08-02T10:23:37;2.15;;;1.30;;
8895;SDS011;4484;48.928;10.066;2022-08-02T10:26:06;1.50;;;1.35;;
8895;SDS011;4484;48.928;10.066;2022-08-02T10:28:33;1.65;;;1.55;;
8895;SDS011;4484;48.928;10.066;2022-08-02T10:31:04;1.88;;;1.65;;
8895;SDS011;4484;48.928;10.066;2022-08-02T10:33:34;1.90;;;1.67;;
8895;SDS011;4484;48.928;10.066;2022-08-02T10:36:03;1.67;;;1.55;;
8895;SDS011;4484;48.928;10.066;2022-08-02T10:38:33;1.70;;;1.60;;
8895;SDS011;4484;48.928;10.066;2022-08-02T10:41:01;1.70;;;1.60;;
8895;SDS011;4484;48.928;10.066;2022-08-02T10:46:19;1.60;;;1.50;;
8895;SDS011;4484;48.928;10.066;2022-08-02T10:54:32;3.00;;;1.80;;
8895;SDS011;4484;48.928;10.066;2022-08-02T10:57:12;1.60;;;1.50;;
8895;SDS011;4484;48.928;10.066;2022-08-02T10:59:43;1.70;;;1.60;;
8895;SDS011;4484;48.928;10.066;2022-08-02T11:02:11;2.95;;;1.35;;
8895;SDS011;4484;48.928;10.066;2022-08-02T11:07:12;2.17;;;1.48;;
8895;SDS011;4484;48.928;10.066;2022-08-02T11:09:44;1.27;;;1.20;;
8895;SDS011;4484;48.928;10.066;2022-08-02T11:12:16;1.60;;;1.40;;
8895;SDS011;4484;48.928;10.066;2022-08-02T11:15:03;3.55;;;1.45;;
8895;SDS011;4484;48.928;10.066;2022-08-02T11:17:53;1.58;;;1.40;;
8895;SDS011;4484;48.928;10.066;2022-08-02T11:20:21;2.05;;;1.50;;
8895;SDS011;4484;48.928;10.066;2022-08-02T11:22:50;1.83;;;1.45;;
8895;SDS011;4484;48.928;10.066;2022-08-02T11:27:55;1.90;;;1.60;;
8895;SDS011;4484;48.928;10.066;2022-08-02T11:30:24;1.30;;;1.20;;
8895;SDS011;4484;48.928;10.066;2022-08-02T11:32:56;4.75;;;1.48;;
8895;SDS011;4484;48.928;10.066;2022-08-02T11:35:34;3.08;;;1.50;;
8895;SDS011;4484;48.928;10.066;2022-08-02T11:38:13;1.85;;;1.55;;
8895;SDS011;4484;48.928;10.066;2022-08-02T11:40:42;1.83;;;1.50;;
8895;SDS011;4484;48.928;10.066;2022-08-02T11:43:21;1.40;;;1.30;;
8895;SDS011;4484;48.928;10.066;2022-08-02T11:45:50;1.38;;;1.27;;
8895;SDS011;4484;48.928;10.066;2022-08-02T11:48:28;1.75;;;1.50;;
8895;SDS011;4484;48.928;10.066;2022-08-02T11:53:52;1.65;;;1.13;;
8895;SDS011;4484;48.928;10.066;2022-08-02T11:56:26;1.67;;;1.58;;
8895;SDS011;4484;48.928;10.066;2022-08-02T11:59:04;1.60;;;1.50;;
8895;SDS011;4484;48.928;10.066;2022-08-02T12:01:33;1.60;;;1.50;;
8895;SDS011;4484;48.928;10.066;2022-08-02T12:04:14;1.33;;;1.23;;
8895;SDS011;4484;48.928;10.066;2022-08-02T12:06:43;2.15;;;1.35;;
8895;SDS011;4484;48.928;10.066;2022-08-02T12:09:18;2.47;;;1.50;;
8895;SDS011;4484;48.928;10.066;2022-08-02T12:11:48;1.65;;;1.55;;
8895;SDS011;4484;48.928;10.066;2022-08-02T12:14:16;1.50;;;1.20;;
8895;SDS011;4484;48.928;10.066;2022-08-02T12:16:43;1.10;;;1.10;;
8895;SDS011;4484;48.928;10.066;2022-08-02T12:19:29;1.58;;;1.40;;
8895;SDS011;4484;48.928;10.066;2022-08-02T12:24:54;2.10;;;1.23;;
8895;SDS011;4484;48.928;10.066;2022-08-02T12:27:26;2.55;;;1.20;;
8895;SDS011;4484;48.928;10.066;2022-08-02T12:30:07;1.17;;;1.13;;
8895;SDS011;4484;48.928;10.066;2022-08-02T12:32:38;1.30;;;1.13;;
8895;SDS011;4484;48.928;10.066;2022-08-02T12:37:54;1.60;;;1.20;;
8895;SDS011;4484;48.928;10.066;2022-08-02T12:42:56;1.50;;;1.13;;
8895;SDS011;4484;48.928;10.066;2022-08-02T12:45:26;1.52;;;1.00;;
8895;SDS011;4484;48.928;10.066;2022-08-02T12:48:06;1.55;;;0.88;;
8895;SDS011;4484;48.928;10.066;2022-08-02T12:50:33;2.22;;;1.08;;
8895;SDS011;4484;48.928;10.066;2022-08-02T12:53:15;1.05;;;1.00;;
8895;SDS011;4484;48.928;10.066;2022-08-02T12:55:50;0.85;;;0.75;;
8895;SDS011;4484;48.928;10.066;2022-08-02T12:58:28;3.08;;;0.90;;
8895;SDS011;4484;48.928;10.066;2022-08-02T13:00:57;0.82;;;0.82;;
8895;SDS011;4484;48.928;10.066;2022-08-02T13:03:25;0.80;;;0.80;;
8895;SDS011;4484;48.928;10.066;2022-08-02T13:06:13;1.00;;;0.80;;
8895;SDS011;4484;48.928;10.066;2022-08-02T13:09:00;1.75;;;0.80;;
8895;SDS011;4484;48.928;10.066;2022-08-02T13:11:27;1.02;;;0.70;;
8895;SDS011;4484;48.928;10.066;2022-08-02T13:13:54;0.98;;;0.90;;
8895;SDS011;4484;48.928;10.066;2022-08-02T13:16:21;1.58;;;1.13;;
8895;SDS011;4484;48.928;10.066;2022-08-02T13:18:57;1.42;;;0.80;;
8895;SDS011;4484;48.928;10.066;2022-08-02T13:21:24;0.80;;;0.80;;
8895;SDS011;4484;48.928;10.066;2022-08-02T13:24:11;1.77;;;1.20;;
8895;SDS011;4484;48.928;10.066;2022-08-02T13:27:01;0.82;;;0.82;;
8895;SDS011;4484;48.928;10.066;2022-08-02T13:29:35;1.05;;;0.98;;
8895;SDS011;4484;48.928;10.066;2022-08-02T13:32:03;0.88;;;0.73;;
8895;SDS011;4484;48.928;10.066;2022-08-02T13:34:30;0.95;;;0.95;;
8895;SDS011;4484;48.928;10.066;2022-08-02T13:36:57;4.05;;;0.75;;
8895;SDS011;4484;48.928;10.066;2022-08-02T13:39:24;1.67;;;0.90;;
8895;SDS011;4484;48.928;10.066;2022-08-02T13:41:51;0.80;;;0.77;;
8895;SDS011;4484;48.928;10.066;2022-08-02T13:44:18;0.88;;;0.80;;
8895;SDS011;4484;48.928;10.066;2022-08-02T13:46:45;1.23;;;0.88;;
8895;SDS011;4484;48.928;10.066;2022-08-02T13:49:12;1.98;;;0.82;;
8895;SDS011;4484;48.928;10.066;2022-08-02T13:51:45;1.00;;;0.90;;
8895;SDS011;4484;48.928;10.066;2022-08-02T13:54:15;2.42;;;1.30;;
8895;SDS011;4484;48.928;10.066;2022-08-02T13:56:42;1.05;;;0.95;;
8895;SDS011;4484;48.928;10.066;2022-08-02T13:59:10;0.77;;;0.77;;
8895;SDS011;4484;48.928;10.066;2022-08-02T14:02:00;1.35;;;1.25;;
8895;SDS011;4484;48.928;10.066;2022-08-02T14:04:27;1.90;;;0.90;;
8895;SDS011;4484;48.928;10.066;2022-08-02T14:06:56;3.03;;;1.23;;
8895;SDS011;4484;48.928;10.066;2022-08-02T14:09:24;2.25;;;0.90;;
8895;SDS011;4484;48.928;10.066;2022-08-02T14:11:51;2.13;;;1.30;;
8895;SDS011;4484;48.928;10.066;2022-08-02T14:14:20;2.35;;;1.35;;
8895;SDS011;4484;48.928;10.066;2022-08-02T14:16:47;1.30;;;1.10;;
8895;SDS011;4484;48.928;10.066;2022-08-02T14:19:14;1.95;;;1.20;;
8895;SDS011;4484;48.928;10.066;2022-08-02T14:21:43;1.27;;;1.10;;
8895;SDS011;4484;48.928;10.066;2022-08-02T14:24:16;1.10;;;1.00;;
8895;SDS011;4484;48.928;10.066;2022-08-02T14:26:45;1.05;;;0.95;;
8895;SDS011;4484;48.928;10.066;2022-08-02T14:29:14;1.17;;;1.10;;
8895;SDS011;4484;48.928;10.066;2022-08-02T14:31:44;1.45;;;1.20;;
8895;SDS011;4484;48.928;10.066;2022-08-02T14:34:11;1.20;;;1.10;;
8895;SDS011;4484;48.928;10.066;2022-08-02T14:39:19;5.38;;;0.90;;
8895;SDS011;4484;48.928;10.066;2022-08-02T14:41:46;2.47;;;1.00;;
8895;SDS011;4484;48.928;10.066;2022-08-02T14:44:28;2.65;;;1.23;;
8895;SDS011;4484;48.928;10.066;2022-08-02T14:46:58;5.35;;;1.10;;
8895;SDS011;4484;48.928;10.066;2022-08-02T14:52:20;1.20;;;1.10;;
8895;SDS011;4484;48.928;10.066;2022-08-02T14:54:48;1.23;;;1.00;;
8895;SDS011;4484;48.928;10.066;2022-08-02T14:57:16;1.00;;;0.90;;
8895;SDS011;4484;48.928;10.066;2022-08-02T14:59:44;0.88;;;0.88;;
8895;SDS011;4484;48.928;10.066;2022-08-02T15:02:12;1.20;;;1.10;;
8895;SDS011;4484;48.928;10.066;2022-08-02T15:04:41;1.42;;;1.10;;
8895;SDS011;4484;48.928;10.066;2022-08-02T15:07:11;1.20;;;1.10;;
8895;SDS011;4484;48.928;10.066;2022-08-02T15:09:38;3.05;;;0.98;;
8895;SDS011;4484;48.928;10.066;2022-08-02T15:12:13;2.00;;;1.15;;
8895;SDS011;4484;48.928;10.066;2022-08-02T15:14:41;2.53;;;1.05;;
8895;SDS011;4484;48.928;10.066;2022-08-02T15:17:09;2.67;;;1.10;;
8895;SDS011;4484;48.928;10.066;2022-08-02T15:19:36;1.10;;;1.00;;
8895;SDS011;4484;48.928;10.066;2022-08-02T15:22:24;1.33;;;0.90;;
8895;SDS011;4484;48.928;10.066;2022-08-02T15:24:52;1.70;;;1.17;;
8895;SDS011;4484;48.928;10.066;2022-08-02T15:27:22;1.38;;;1.20;;
8895;SDS011;4484;48.928;10.066;2022-08-02T15:29:49;1.30;;;1.10;;
8895;SDS011;4484;48.928;10.066;2022-08-02T15:32:17;1.33;;;1.20;;
8895;SDS011;4484;48.928;10.066;2022-08-02T15:34:45;3.65;;;1.05;;
8895;SDS011;4484;48.928;10.066;2022-08-02T15:37:12;0.88;;;0.88;;
8895;SDS011;4484;48.928;10.066;2022-08-02T15:39:39;2.35;;;1.20;;
8895;SDS011;4484;48.928;10.066;2022-08-02T15:42:07;2.33;;;1.23;;
8895;SDS011;4484;48.928;10.066;2022-08-02T15:44:35;1.08;;;1.02;;
8895;SDS011;4484;48.928;10.066;2022-08-02T15:47:09;1.45;;;1.00;;
8895;SDS011;4484;48.928;10.066;2022-08-02T15:49:36;0.93;;;0.90;;
8895;SDS011;4484;48.928;10.066;2022-08-02T15:52:08;0.95;;;0.90;;
8895;SDS011;4484;48.928;10.066;2022-08-02T15:54:38;0.95;;;0.95;;
8895;SDS011;4484;48.928;10.066;2022-08-02T15:57:06;1.17;;;1.08;;
8895;SDS011;4484;48.928;10.066;2022-08-02T15:59:37;1.48;;;1.05;;
8895;SDS011;4484;48.928;10.066;2022-08-02T16:02:05;1.10;;;1.00;;
8895;SDS011;4484;48.928;10.066;2022-08-02T16:04:38;1.60;;;0.90;;
8895;SDS011;4484;48.928;10.066;2022-08-02T16:07:06;0.90;;;0.90;;
8895;SDS011;4484;48.928;10.066;2022-08-02T16:09:39;2.05;;;1.08;;
8895;SDS011;4484;48.928;10.066;2022-08-02T16:12:06;0.90;;;0.90;;
8895;SDS011;4484;48.928;10.066;2022-08-02T16:14:33;1.00;;;0.90;;
8895;SDS011;4484;48.928;10.066;2022-08-02T16:19:38;1.20;;;1.10;;
8895;SDS011;4484;48.928;10.066;2022-08-02T16:22:16;4.55;;;1.30;;
8895;SDS011;4484;48.928;10.066;2022-08-02T16:27:42;1.27;;;0.98;;